Danali, Honduras
Current Conditions -  °F | °C
As of 11:00 AM on Monday 22 Dec 2014 (Local Time) from MHTG Reporting Station
Few Clouds Few Clouds  
Wind Chill: 81°   Ceiling: Unl
Heat Index: 81°   Visibility: 6mi
Dew Point: 55°   Wind: 7mph
Humidity: 42%   Direction: 20°NNE
Pressure: 30.06"   Gusts: NA
Location:  14.02°N, 86.3°W
Report Text: MHTG 221700Z 02006KT 9999 FEW030 27/13 Q1018 A3006 NOSIG
Loading
Personal Weather Stations






























Interactive Weather Map New forecast layout! Learn more

10-Day Weather Forecast

Advertisements
Track Severe Weather on mobile